Time,TemperatureF,DewpointF,PressureIn,WindDirection,WindDirectionDegrees,WindSpeedMPH,WindSpeedGustMPH,Humidity,HourlyPrecipIn,Conditions,Clouds,dailyrainin,SoftwareType,DateUTC
2013-04-10 00:03:00,70.0,49.0,-100.00,SSW,195,3.0,6.0,47,0.00,,,-99.99,,2013-04-10 04:03:00,
2013-04-10 00:13:00,70.0,49.0,-100.00,SW,215,1.0,7.0,47,0.00,,,-99.99,,2013-04-10 04:13:00,
2013-04-10 00:23:00,70.0,49.0,-100.00,SW,215,1.0,7.0,47,0.00,,,-99.99,,2013-04-10 04:23:00,
2013-04-10 00:33:00,70.0,49.0,-100.00,South,185,4.0,6.0,47,0.00,,,-99.99,,2013-04-10 04:33:00,
2013-04-10 00:43:00,69.0,49.0,-100.00,South,185,4.0,6.0,48,0.00,,,-99.99,,2013-04-10 04:43:00,
2013-04-10 00:52:00,69.0,49.0,-100.00,South,185,4.0,6.0,48,0.00,,,-99.99,,2013-04-10 04:52:00,
2013-04-10 01:03:00,69.0,49.0,-100.00,SSW,195,4.0,6.0,49,0.00,,,-99.99,,2013-04-10 05:03:00,
2013-04-10 01:13:00,69.0,49.0,-100.00,SSW,195,4.0,6.0,50,0.00,,,-99.99,,2013-04-10 05:13:00,
2013-04-10 01:23:00,69.0,49.0,-100.00,SSW,195,4.0,6.0,50,0.00,,,-99.99,,2013-04-10 05:23:00,
2013-04-10 01:33:00,68.0,49.0,-100.00,SSW,205,4.0,7.0,50,0.00,,,-99.99,,2013-04-10 05:33:00,
2013-04-10 01:42:00,68.0,49.0,-100.00,South,185,3.0,6.0,52,0.00,,,-99.99,,2013-04-10 05:42:00,
2013-04-10 01:53:00,68.0,49.0,-100.00,South,185,3.0,6.0,52,0.00,,,-99.99,,2013-04-10 05:53:00,
2013-04-10 02:03:00,67.0,49.0,-100.00,South,190,4.0,6.0,53,0.00,,,-99.99,,2013-04-10 06:03:00,
2013-04-10 02:12:00,67.0,49.0,-100.00,South,175,2.0,4.0,53,0.00,,,-99.99,,2013-04-10 06:12:00,
2013-04-10 02:22:00,67.0,49.0,-100.00,South,175,2.0,4.0,53,0.00,,,-99.99,,2013-04-10 06:22:00,
2013-04-10 02:32:00,66.0,49.0,-100.00,South,170,3.0,6.0,54,0.00,,,-99.99,,2013-04-10 06:32:00,
2013-04-10 02:42:00,66.0,49.0,-100.00,South,190,3.0,5.0,55,0.00,,,-99.99,,2013-04-10 06:42:00,
2013-04-10 02:52:00,66.0,49.0,-100.00,South,190,3.0,5.0,55,0.00,,,-99.99,,2013-04-10 06:52:00,
2013-04-10 03:02:00,65.0,49.0,-100.00,SSE,165,2.0,4.0,56,0.00,,,-99.99,,2013-04-10 07:02:00,
2013-04-10 03:12:00,65.0,49.0,-100.00,South,175,3.0,4.0,57,0.00,,,-99.99,,2013-04-10 07:12:00,
2013-04-10 03:22:00,65.0,49.0,-100.00,South,175,3.0,4.0,57,0.00,,,-99.99,,2013-04-10 07:22:00,
2013-04-10 03:32:00,65.0,49.0,-100.00,South,185,2.0,4.0,57,0.00,,,-99.99,,2013-04-10 07:32:00,
2013-04-10 03:42:00,65.0,49.0,-100.00,SSE,150,1.0,4.0,57,0.00,,,-99.99,,2013-04-10 07:42:00,
2013-04-10 03:52:00,65.0,49.0,-100.00,SSE,150,1.0,4.0,57,0.00,,,-99.99,,2013-04-10 07:52:00,
2013-04-10 04:02:00,64.0,49.0,-100.00,SSE,165,2.0,4.0,58,0.00,,,-99.99,,2013-04-10 08:02:00,
2013-04-10 04:12:00,64.0,49.0,-100.00,SSE,165,2.0,4.0,59,0.00,,,-99.99,,2013-04-10 08:12:00,
2013-04-10 04:22:00,64.0,49.0,-100.00,SSE,165,2.0,4.0,59,0.00,,,-99.99,,2013-04-10 08:22:00,
2013-04-10 04:32:00,64.0,50.0,-100.00,SSE,160,4.0,5.0,60,0.00,,,-99.99,,2013-04-10 08:32:00,
2013-04-10 04:42:00,64.0,49.0,-100.00,South,170,2.0,6.0,60,0.00,,,-99.99,,2013-04-10 08:42:00,
2013-04-10 04:52:00,64.0,49.0,-100.00,South,170,2.0,6.0,60,0.00,,,-99.99,,2013-04-10 08:52:00,
2013-04-10 05:02:00,64.0,50.0,-100.00,South,175,3.0,6.0,60,0.00,,,-99.99,,2013-04-10 09:02:00,
2013-04-10 05:12:00,64.0,49.0,-100.00,South,170,4.0,6.0,59,0.00,,,-99.99,,2013-04-10 09:12:00,
2013-04-10 05:22:00,64.0,49.0,-100.00,South,170,4.0,6.0,59,0.00,,,-99.99,,2013-04-10 09:22:00,
2013-04-10 05:32:00,64.0,49.0,-100.00,South,190,4.0,6.0,58,0.00,,,-99.99,,2013-04-10 09:32:00,
2013-04-10 05:43:00,65.0,49.0,-100.00,South,175,3.0,6.0,57,0.00,,,-99.99,,2013-04-10 09:43:00,
2013-04-10 05:52:00,65.0,49.0,-100.00,South,175,3.0,6.0,57,0.00,,,-99.99,,2013-04-10 09:52:00,
2013-04-10 06:03:00,64.0,49.0,-100.00,SSW,205,3.0,6.0,57,0.00,,,-99.99,,2013-04-10 10:03:00,
2013-04-10 06:13:00,65.0,49.0,-100.00,SSW,210,2.0,6.0,57,0.00,,,-99.99,,2013-04-10 10:13:00,
2013-04-10 06:23:00,65.0,49.0,-100.00,SSW,210,2.0,6.0,57,0.00,,,-99.99,,2013-04-10 10:23:00,
2013-04-10 06:33:00,65.0,49.0,-100.00,SSE,165,2.0,4.0,57,0.00,,,-99.99,,2013-04-10 10:33:00,
2013-04-10 06:43:00,64.0,49.0,-100.00,SSE,160,2.0,5.0,59,0.00,,,-99.99,,2013-04-10 10:43:00,
2013-04-10 06:52:00,64.0,49.0,-100.00,SSE,160,2.0,5.0,59,0.00,,,-99.99,,2013-04-10 10:52:00,
2013-04-10 07:02:00,64.0,49.0,-100.00,South,175,3.0,5.0,59,0.00,,,-99.99,,2013-04-10 11:02:00,
2013-04-10 07:12:00,66.0,49.0,-100.00,South,180,3.0,5.0,56,0.00,,,-99.99,,2013-04-10 11:12:00,
2013-04-10 07:22:00,66.0,49.0,-100.00,South,180,3.0,5.0,56,0.00,,,-99.99,,2013-04-10 11:22:00,
2013-04-10 07:32:00,67.0,50.0,-100.00,SSE,165,4.0,7.0,53,0.00,,,-99.99,,2013-04-10 11:32:00,
2013-04-10 07:42:00,69.0,50.0,-100.00,South,175,6.0,9.0,51,0.00,,,-99.99,,2013-04-10 11:42:00,
2013-04-10 07:52:00,69.0,50.0,-100.00,South,175,6.0,9.0,51,0.00,,,-99.99,,2013-04-10 11:52:00,
2013-04-10 08:03:00,69.0,50.0,-100.00,South,175,5.0,7.0,51,0.00,,,-99.99,,2013-04-10 12:03:00,
2013-04-10 08:12:00,69.0,50.0,-100.00,South,190,4.0,7.0,51,0.00,,,-99.99,,2013-04-10 12:12:00,
2013-04-10 08:23:00,69.0,50.0,-100.00,South,190,4.0,7.0,51,0.00,,,-99.99,,2013-04-10 12:23:00,
2013-04-10 08:33:00,70.0,51.0,-100.00,SSW,200,5.0,8.0,51,0.00,,,-99.99,,2013-04-10 12:33:00,
2013-04-10 08:42:00,71.0,52.0,-100.00,SSW,205,5.0,11.0,51,0.00,,,-99.99,,2013-04-10 12:42:00,
2013-04-10 08:52:00,71.0,52.0,-100.00,SSW,205,5.0,11.0,51,0.00,,,-99.99,,2013-04-10 12:52:00,
2013-04-10 09:02:00,72.0,53.0,-100.00,SW,225,3.0,9.0,50,0.00,,,-99.99,,2013-04-10 13:02:00,
2013-04-10 09:12:00,73.0,53.0,-100.00,SSW,195,6.0,9.0,49,0.00,,,-99.99,,2013-04-10 13:12:00,
2013-04-10 09:23:00,73.0,53.0,-100.00,SSW,195,6.0,9.0,49,0.00,,,-99.99,,2013-04-10 13:23:00,
2013-04-10 09:32:00,74.0,53.0,-100.00,SW,225,4.0,11.0,48,0.00,,,-99.99,,2013-04-10 13:32:00,
2013-04-10 09:43:00,75.0,53.0,-100.00,SSW,200,4.0,11.0,47,0.00,,,-99.99,,2013-04-10 13:43:00,
2013-04-10 09:53:00,75.0,53.0,-100.00,SSW,200,4.0,11.0,47,0.00,,,-99.99,,2013-04-10 13:53:00,
2013-04-10 10:02:00,75.0,54.0,-100.00,SSW,200,5.0,9.0,47,0.00,,,-99.99,,2013-04-10 14:02:00,
2013-04-10 10:12:00,77.0,54.0,-100.00,SW,225,8.0,12.0,45,0.00,,,-99.99,,2013-04-10 14:12:00,
2013-04-10 10:22:00,77.0,54.0,-100.00,SW,225,8.0,12.0,45,0.00,,,-99.99,,2013-04-10 14:22:00,
2013-04-10 10:33:00,77.0,54.0,-100.00,SSW,205,7.0,12.0,45,0.00,,,-99.99,,2013-04-10 14:33:00,
2013-04-10 10:42:00,79.0,56.0,-100.00,WSW,240,4.0,12.0,45,0.00,,,-99.99,,2013-04-10 14:42:00,
2013-04-10 10:52:00,79.0,56.0,-100.00,WSW,240,4.0,12.0,45,0.00,,,-99.99,,2013-04-10 14:52:00,
2013-04-10 11:02:00,80.0,56.0,-100.00,West,260,6.0,12.0,44,0.00,,,-99.99,,2013-04-10 15:02:00,
2013-04-10 11:12:00,81.0,57.0,-100.00,North,-999,-999.0,-999.0,44,0.00,,,-99.99,,2013-04-10 15:12:00,
2013-04-10 11:22:00,81.0,57.0,-100.00,North,-999,-999.0,-999.0,44,0.00,,,-99.99,,2013-04-10 15:22:00,
2013-04-10 11:33:00,81.0,57.0,-100.00,WSW,250,7.0,14.0,43,0.00,,,-99.99,,2013-04-10 15:33:00,
2013-04-10 11:42:00,83.0,58.0,-100.00,WNW,295,7.0,16.0,42,0.00,,,-99.99,,2013-04-10 15:42:00,
2013-04-10 11:52:00,83.0,58.0,-100.00,WNW,295,7.0,16.0,42,0.00,,,-99.99,,2013-04-10 15:52:00,
2013-04-10 12:03:00,84.0,58.0,-100.00,West,270,6.0,13.0,42,0.00,,,-99.99,,2013-04-10 16:03:00,
2013-04-10 12:13:00,85.0,58.0,-100.00,North,-999,-999.0,-999.0,40,0.00,,,-99.99,,2013-04-10 16:13:00,
2013-04-10 12:23:00,85.0,58.0,-100.00,North,-999,-999.0,-999.0,40,0.00,,,-99.99,,2013-04-10 16:23:00,
2013-04-10 12:33:00,85.0,58.0,-100.00,WNW,285,4.0,18.0,40,0.00,,,-99.99,,2013-04-10 16:33:00,
2013-04-10 12:43:00,86.0,58.0,-100.00,West,270,10.0,25.0,39,0.00,,,-99.99,,2013-04-10 16:43:00,
2013-04-10 12:52:00,86.0,58.0,-100.00,West,270,10.0,25.0,39,0.00,,,-99.99,,2013-04-10 16:52:00,
2013-04-10 13:03:00,86.0,58.0,-100.00,West,275,7.0,17.0,39,0.00,,,-99.99,,2013-04-10 17:03:00,
2013-04-10 13:12:00,86.0,58.0,-100.00,West,260,10.0,19.0,39,0.00,,,-99.99,,2013-04-10 17:12:00,
2013-04-10 13:22:00,86.0,58.0,-100.00,West,260,10.0,19.0,39,0.00,,,-99.99,,2013-04-10 17:22:00,
2013-04-10 13:33:00,87.0,57.0,-100.00,WSW,245,9.0,18.0,37,0.00,,,-99.99,,2013-04-10 17:33:00,
2013-04-10 13:43:00,88.0,58.0,-100.00,NW,305,6.0,15.0,37,0.00,,,-99.99,,2013-04-10 17:43:00,
2013-04-10 13:52:00,88.0,58.0,-100.00,NW,305,6.0,15.0,37,0.00,,,-99.99,,2013-04-10 17:52:00,
2013-04-10 14:03:00,87.0,57.0,-100.00,WSW,255,9.0,19.0,36,0.00,,,-99.99,,2013-04-10 18:03:00,
2013-04-10 14:12:00,86.0,57.0,-100.00,North,-999,-999.0,-999.0,37,0.00,,,-99.99,,2013-04-10 18:12:00,
2013-04-10 14:23:00,86.0,57.0,-100.00,North,-999,-999.0,-999.0,37,0.00,,,-99.99,,2013-04-10 18:23:00,
2013-04-10 14:33:00,85.0,55.0,-100.00,NW,305,6.0,14.0,36,0.00,,,-99.99,,2013-04-10 18:33:00,
2013-04-10 14:42:00,88.0,57.0,-100.00,West,275,9.0,18.0,35,0.00,,,-99.99,,2013-04-10 18:42:00,
2013-04-10 14:53:00,88.0,57.0,-100.00,West,275,9.0,18.0,35,0.00,,,-99.99,,2013-04-10 18:53:00,
2013-04-10 15:03:00,88.0,57.0,-100.00,West,270,5.0,17.0,35,0.00,,,-99.99,,2013-04-10 19:03:00,
2013-04-10 15:12:00,90.0,57.0,-100.00,WNW,295,6.0,16.0,33,0.00,,,-99.99,,2013-04-10 19:12:00,
2013-04-10 15:22:00,90.0,57.0,-100.00,WNW,295,6.0,16.0,33,0.00,,,-99.99,,2013-04-10 19:22:00,
2013-04-10 15:33:00,89.0,56.0,-100.00,West,265,7.0,19.0,33,0.00,,,-99.99,,2013-04-10 19:33:00,
2013-04-10 15:42:00,90.0,57.0,-100.00,WSW,255,5.0,19.0,33,0.00,,,-99.99,,2013-04-10 19:42:00,
2013-04-10 15:52:00,90.0,57.0,-100.00,WSW,255,5.0,19.0,33,0.00,,,-99.99,,2013-04-10 19:52:00,
2013-04-10 16:03:00,89.0,56.0,-100.00,West,270,9.0,21.0,33,0.00,,,-99.99,,2013-04-10 20:03:00,
2013-04-10 16:12:00,89.0,56.0,-100.00,West,265,9.0,16.0,33,0.00,,,-99.99,,2013-04-10 20:12:00,
2013-04-10 16:23:00,89.0,56.0,-100.00,West,265,9.0,16.0,33,0.00,,,-99.99,,2013-04-10 20:23:00,
2013-04-10 16:33:00,90.0,56.0,-100.00,West,265,7.0,16.0,32,0.00,,,-99.99,,2013-04-10 20:33:00,
2013-04-10 16:42:00,90.0,56.0,-100.00,West,260,6.0,21.0,32,0.00,,,-99.99,,2013-04-10 20:42:00,
2013-04-10 16:52:00,90.0,56.0,-100.00,West,260,6.0,21.0,32,0.00,,,-99.99,,2013-04-10 20:52:00,
2013-04-10 17:03:00,89.0,55.0,-100.00,West,260,9.0,19.0,32,0.00,,,-99.99,,2013-04-10 21:03:00,
2013-04-10 17:13:00,88.0,55.0,-100.00,West,260,7.0,14.0,33,0.00,,,-99.99,,2013-04-10 21:13:00,
2013-04-10 17:22:00,88.0,55.0,-100.00,West,260,7.0,14.0,33,0.00,,,-99.99,,2013-04-10 21:22:00,
2013-04-10 17:33:00,87.0,54.0,-100.00,West,265,7.0,16.0,33,0.00,,,-99.99,,2013-04-10 21:33:00,
2013-04-10 17:43:00,87.0,54.0,-100.00,WSW,250,6.0,14.0,33,0.00,,,-99.99,,2013-04-10 21:43:00,
2013-04-10 17:53:00,87.0,54.0,-100.00,WSW,250,6.0,14.0,33,0.00,,,-99.99,,2013-04-10 21:53:00,
2013-04-10 18:03:00,86.0,54.0,-100.00,West,260,4.0,9.0,34,0.00,,,-99.99,,2013-04-10 22:03:00,
2013-04-10 18:13:00,86.0,54.0,-100.00,WSW,250,4.0,9.0,34,0.00,,,-99.99,,2013-04-10 22:13:00,
2013-04-10 18:23:00,86.0,54.0,-100.00,WSW,250,4.0,9.0,34,0.00,,,-99.99,,2013-04-10 22:23:00,
2013-04-10 18:34:00,86.0,54.0,-100.00,SW,235,4.0,7.0,34,0.00,,,-99.99,,2013-04-10 22:34:00,
2013-04-10 18:42:00,85.0,54.0,-100.00,WSW,240,4.0,9.0,34,0.00,,,-99.99,,2013-04-10 22:42:00,
2013-04-10 18:52:00,85.0,54.0,-100.00,WSW,240,4.0,9.0,34,0.00,,,-99.99,,2013-04-10 22:52:00,
2013-04-10 19:03:00,85.0,54.0,-100.00,SW,230,3.0,7.0,34,0.00,,,-99.99,,2013-04-10 23:03:00,
2013-04-10 19:12:00,84.0,54.0,-100.00,SW,235,2.0,4.0,35,0.00,,,-99.99,,2013-04-10 23:12:00,
2013-04-10 19:22:00,84.0,54.0,-100.00,SW,235,2.0,4.0,35,0.00,,,-99.99,,2013-04-10 23:22:00,
2013-04-10 19:33:00,83.0,53.0,-100.00,SSW,210,2.0,3.0,36,0.00,,,-99.99,,2013-04-10 23:33:00,
2013-04-10 19:42:00,82.0,53.0,-100.00,South,190,3.0,7.0,37,0.00,,,-99.99,,2013-04-10 23:42:00,
2013-04-10 19:52:00,82.0,53.0,-100.00,South,190,3.0,7.0,37,0.00,,,-99.99,,2013-04-10 23:52:00,
2013-04-10 20:02:00,81.0,53.0,-100.00,SW,220,1.0,6.0,38,0.00,,,-99.99,,2013-04-11 00:02:00,
2013-04-10 20:12:00,80.0,53.0,-100.00,SSW,205,1.0,3.0,38,0.00,,,-99.99,,2013-04-11 00:12:00,
2013-04-10 20:22:00,80.0,53.0,-100.00,SSW,205,1.0,3.0,38,0.00,,,-99.99,,2013-04-11 00:22:00,
2013-04-10 20:32:00,80.0,52.0,-100.00,South,180,2.0,3.0,38,0.00,,,-99.99,,2013-04-11 00:32:00,
2013-04-10 20:42:00,80.0,53.0,-100.00,SSW,200,1.0,4.0,39,0.00,,,-99.99,,2013-04-11 00:42:00,
2013-04-10 20:52:00,80.0,53.0,-100.00,SSW,200,1.0,4.0,39,0.00,,,-99.99,,2013-04-11 00:52:00,
2013-04-10 21:02:00,80.0,53.0,-100.00,NW,325,3.0,4.0,39,0.00,,,-99.99,,2013-04-11 01:02:00,
2013-04-10 21:12:00,79.0,53.0,-100.00,SW,215,1.0,2.0,40,0.00,,,-99.99,,2013-04-11 01:12:00,
2013-04-10 21:22:00,79.0,53.0,-100.00,SW,215,1.0,2.0,40,0.00,,,-99.99,,2013-04-11 01:22:00,
2013-04-10 21:32:00,79.0,53.0,-100.00,SSW,195,1.0,2.0,40,0.00,,,-99.99,,2013-04-11 01:32:00,
2013-04-10 21:42:00,78.0,52.0,-100.00,WSW,240,1.0,2.0,40,0.00,,,-99.99,,2013-04-11 01:42:00,
2013-04-10 21:52:00,78.0,52.0,-100.00,WSW,240,1.0,2.0,40,0.00,,,-99.99,,2013-04-11 01:52:00,
2013-04-10 22:03:00,78.0,52.0,-100.00,SW,235,1.0,2.0,40,0.00,,,-99.99,,2013-04-11 02:03:00,
2013-04-10 22:12:00,76.0,51.0,-100.00,NNE,20,12.0,22.0,43,0.00,,,-99.99,,2013-04-11 02:12:00,
2013-04-10 22:22:00,76.0,51.0,-100.00,NNE,20,12.0,22.0,43,0.00,,,-99.99,,2013-04-11 02:22:00,
2013-04-10 22:32:00,74.0,51.0,-100.00,NNE,15,13.0,22.0,45,0.00,,,-99.99,,2013-04-11 02:32:00,
2013-04-10 22:42:00,74.0,51.0,-100.00,NNE,15,13.0,22.0,45,0.00,,,-99.99,,2013-04-11 02:42:00,
2013-04-10 22:52:00,72.0,51.0,-100.00,NNE,25,8.0,14.0,47,0.00,,,-99.99,,2013-04-11 02:52:00,
2013-04-10 23:02:00,72.0,51.0,-100.00,NE,45,6.0,12.0,48,0.00,,,-99.99,,2013-04-11 03:02:00,
2013-04-10 23:12:00,71.0,52.0,-100.00,NNE,25,7.0,14.0,51,0.00,,,-99.99,,2013-04-11 03:12:00,
2013-04-10 23:22:00,71.0,52.0,-100.00,NNE,25,7.0,14.0,51,0.00,,,-99.99,,2013-04-11 03:22:00,
2013-04-10 23:33:00,71.0,52.0,-100.00,NNE,25,6.0,12.0,51,0.00,,,-99.99,,2013-04-11 03:33:00,
2013-04-10 23:43:00,70.0,52.0,-100.00,NNE,20,9.0,14.0,53,0.00,,,-99.99,,2013-04-11 03:43:00,
2013-04-10 23:53:00,70.0,52.0,-100.00,NNE,20,9.0,14.0,53,0.00,,,-99.99,,2013-04-11 03:53:00,